createdAt,value
2019-02-19T00:00:35.721Z,26.15
2019-02-19T00:03:05.393Z,27.62
2019-02-19T00:05:35.445Z,26.57
2019-02-19T00:08:04.904Z,25.30
2019-02-19T00:10:33.475Z,28.77
2019-02-19T00:13:01.921Z,26.15
2019-02-19T00:15:30.715Z,28.52
2019-02-19T00:18:18.505Z,28.20
2019-02-19T00:20:49.377Z,28.40
2019-02-19T00:23:17.838Z,24.35
2019-02-19T00:25:47.050Z,24.23
2019-02-19T00:28:15.527Z,27.00
2019-02-19T00:30:43.980Z,26.95
2019-02-19T00:33:12.440Z,25.70
2019-02-19T00:35:41.822Z,23.07
2019-02-19T00:38:10.382Z,27.62
2019-02-19T00:40:39.959Z,19.07
2019-02-19T00:43:08.452Z,22.15
2019-02-19T00:45:36.969Z,19.55
2019-02-19T00:48:05.584Z,20.70
2019-02-19T00:50:34.088Z,23.92
2019-02-19T00:53:02.537Z,21.65
2019-02-19T00:55:31.130Z,21.20
2019-02-19T00:57:59.699Z,20.27
2019-02-19T01:00:28.205Z,20.12
2019-02-19T01:02:58.301Z,24.63
2019-02-19T01:05:26.778Z,16.27
2019-02-19T01:07:55.311Z,19.73
2019-02-19T01:10:23.770Z,21.97
2019-02-19T01:12:52.302Z,18.67
2019-02-19T01:15:25.451Z,16.80
2019-02-19T01:17:52.071Z,17.45
2019-02-19T01:20:20.570Z,21.30
2019-02-19T01:22:49.017Z,20.65
2019-02-19T01:25:17.468Z,18.92
2019-02-19T01:27:47.522Z,23.07
2019-02-19T01:30:16.030Z,23.07
2019-02-19T01:32:44.482Z,16.65
2019-02-19T01:35:14.611Z,18.40
2019-02-19T01:37:45.428Z,18.70
2019-02-19T01:40:13.957Z,16.77
2019-02-19T01:42:42.423Z,18.12
2019-02-19T01:45:11.019Z,13.25
2019-02-19T01:47:39.463Z,12.45
2019-02-19T01:50:11.723Z,17.32
2019-02-19T01:52:40.181Z,16.57
2019-02-19T01:55:28.053Z,16.93
2019-02-19T01:57:57.465Z,19.12
2019-02-19T02:00:25.906Z,21.00
2019-02-19T02:02:54.379Z,20.30
2019-02-19T02:05:22.910Z,22.82
2019-02-19T02:07:52.451Z,21.95
2019-02-19T02:10:22.093Z,17.40
2019-02-19T02:12:50.548Z,22.52
2019-02-19T02:15:19.076Z,24.87
2019-02-19T02:17:47.554Z,20.77
2019-02-19T02:20:16.013Z,21.65
2019-02-19T02:22:44.464Z,25.17
2019-02-19T02:25:13.008Z,21.15
2019-02-19T02:27:42.542Z,24.47
2019-02-19T02:30:12.046Z,26.95
2019-02-19T02:32:41.996Z,25.77
2019-02-19T02:35:11.335Z,22.62
2019-02-19T02:37:40.182Z,26.57
2019-02-19T02:40:08.843Z,32.38
2019-02-19T02:42:37.310Z,25.15
2019-02-19T02:45:05.906Z,24.32
2019-02-19T02:47:34.492Z,24.15
2019-02-19T02:50:02.998Z,28.98
2019-02-19T02:52:31.455Z,28.80
2019-02-19T02:54:59.964Z,24.00
2019-02-19T02:57:28.406Z,33.33
2019-02-19T02:59:56.870Z,27.27
2019-02-19T03:02:25.343Z,23.27
2019-02-19T03:04:55.364Z,27.45
2019-02-19T03:07:26.333Z,30.82
2019-02-19T03:09:54.864Z,27.82
2019-02-19T03:12:23.345Z,25.92
2019-02-19T03:14:51.788Z,26.93
2019-02-19T03:17:20.241Z,29.40
2019-02-19T03:19:48.730Z,26.12
2019-02-19T03:22:17.533Z,26.33
2019-02-19T03:24:45.993Z,25.00
2019-02-19T03:27:14.434Z,29.32
2019-02-19T03:29:42.895Z,27.05
2019-02-19T03:32:11.388Z,30.62
2019-02-19T03:34:39.904Z,30.23
2019-02-19T03:37:08.358Z,28.57
2019-02-19T03:39:37.417Z,29.85
2019-02-19T03:42:05.873Z,28.17
2019-02-19T03:44:34.324Z,32.10
2019-02-19T03:47:02.790Z,35.92
2019-02-19T03:49:31.243Z,34.25
2019-02-19T03:51:59.717Z,32.30
2019-02-19T03:54:28.301Z,31.48
2019-02-19T03:56:58.609Z,27.73
2019-02-19T03:59:28.863Z,33.70
2019-02-19T04:01:57.385Z,34.70
2019-02-19T04:04:25.902Z,29.02
2019-02-19T04:06:57.868Z,30.20
2019-02-19T04:09:27.635Z,28.35
2019-02-19T04:11:58.003Z,32.60
2019-02-19T04:14:28.123Z,23.75
2019-02-19T04:16:58.268Z,28.45
2019-02-19T04:19:27.031Z,33.33
2019-02-19T04:21:56.219Z,35.70
2019-02-19T04:24:24.729Z,30.40
2019-02-19T04:26:54.825Z,31.77
2019-02-19T04:29:23.302Z,29.40
2019-02-19T04:31:51.772Z,30.95
2019-02-19T04:34:20.274Z,25.97
2019-02-19T04:36:48.736Z,30.03
2019-02-19T04:39:17.188Z,24.57
2019-02-19T04:41:48.234Z,24.30
2019-02-19T04:44:17.673Z,26.50
2019-02-19T04:46:47.150Z,25.25
2019-02-19T04:49:15.607Z,34.67
2019-02-19T04:51:48.355Z,33.90
2019-02-19T04:54:16.937Z,26.77
2019-02-19T04:56:48.381Z,29.87
2019-02-19T04:59:17.174Z,25.00
2019-02-19T05:01:45.640Z,30.37
2019-02-19T05:04:14.115Z,27.50
2019-02-19T05:06:42.665Z,31.87
2019-02-19T05:09:11.489Z,28.42
2019-02-19T05:11:39.956Z,27.65
2019-02-19T05:14:10.398Z,29.80
2019-02-19T05:16:41.100Z,22.87
2019-02-19T05:19:09.945Z,27.93
2019-02-19T05:21:38.454Z,31.12
2019-02-19T05:24:06.917Z,29.67
2019-02-19T05:26:35.373Z,29.12
2019-02-19T05:29:11.749Z,30.08
2019-02-19T05:31:40.238Z,31.70
2019-02-19T05:34:08.702Z,27.37
2019-02-19T05:36:38.460Z,27.20
2019-02-19T05:39:07.785Z,30.68
2019-02-19T05:41:36.226Z,27.93
2019-02-19T05:44:04.921Z,30.80
2019-02-19T05:46:35.472Z,22.27
2019-02-19T05:49:04.860Z,21.50
2019-02-19T05:51:34.976Z,26.55
2019-02-19T05:54:03.424Z,25.12
2019-02-19T05:56:31.986Z,29.75
2019-02-19T05:59:00.575Z,27.73
2019-02-19T06:01:29.140Z,28.70
2019-02-19T06:03:57.596Z,20.25
2019-02-19T06:06:26.127Z,25.75
2019-02-19T06:08:56.140Z,19.60
2019-02-19T06:11:24.591Z,26.23
2019-02-19T06:13:53.114Z,20.95
2019-02-19T06:16:22.737Z,22.67
2019-02-19T06:18:51.236Z,24.92
2019-02-19T06:21:19.742Z,27.50
2019-02-19T06:23:48.256Z,26.90
2019-02-19T06:26:16.716Z,27.48
2019-02-19T06:28:48.562Z,26.15
2019-02-19T06:31:17.020Z,34.65
2019-02-19T06:33:46.805Z,28.15
2019-02-19T06:36:15.448Z,31.87
2019-02-19T06:38:43.985Z,25.90
2019-02-19T06:41:12.430Z,28.83
2019-02-19T06:43:40.917Z,25.12
2019-02-19T06:46:09.423Z,27.53
2019-02-19T06:48:37.894Z,24.57
2019-02-19T06:51:06.330Z,23.75
2019-02-19T06:53:35.132Z,30.50
2019-02-19T06:56:04.933Z,34.55
2019-02-19T06:58:33.379Z,22.35
2019-02-19T07:01:01.830Z,26.55
2019-02-19T07:03:42.244Z,33.60
2019-02-19T07:06:11.459Z,28.10
2019-02-19T07:08:44.912Z,28.62
2019-02-19T07:13:43.051Z,23.02
2019-02-19T07:16:11.589Z,36.58
2019-02-19T07:18:42.772Z,26.33
2019-02-19T07:21:13.323Z,20.10
2019-02-19T07:23:43.120Z,22.50
2019-02-19T07:26:11.737Z,30.55
2019-02-19T07:28:40.231Z,23.80
2019-02-19T07:31:08.683Z,26.73
2019-02-19T07:33:38.696Z,30.30
2019-02-19T07:36:07.905Z,26.68
2019-02-19T07:38:36.514Z,26.25
2019-02-19T07:41:05.011Z,27.05
2019-02-19T07:43:33.481Z,23.25
2019-02-19T07:46:01.948Z,24.02
2019-02-19T07:48:34.412Z,31.35
2019-02-19T07:51:04.238Z,28.07
2019-02-19T07:53:32.701Z,31.17
2019-02-19T07:56:01.183Z,29.87
2019-02-19T07:58:29.701Z,26.57
2019-02-19T08:00:58.220Z,27.50
2019-02-19T08:03:26.714Z,22.02
2019-02-19T08:05:55.169Z,23.05
2019-02-19T08:08:26.270Z,24.20
2019-02-19T08:10:54.742Z,27.30
2019-02-19T08:13:24.608Z,27.30
2019-02-19T08:15:54.491Z,34.95
2019-02-19T08:18:25.126Z,23.90
2019-02-19T08:20:53.496Z,32.25
2019-02-19T08:23:21.957Z,33.90
2019-02-19T08:25:50.439Z,34.08
2019-02-19T08:28:18.900Z,43.90
2019-02-19T08:30:47.342Z,31.00
2019-02-19T08:33:15.836Z,44.40
2019-02-19T08:35:46.104Z,35.40
2019-02-19T08:38:14.806Z,37.58
2019-02-19T08:40:43.294Z,45.20
2019-02-19T08:43:11.757Z,44.97
2019-02-19T08:45:40.206Z,38.98
2019-02-19T08:48:08.690Z,42.15
2019-02-19T08:50:37.148Z,43.08
2019-02-19T08:53:05.602Z,52.65
2019-02-19T08:55:34.956Z,45.78
2019-02-19T08:58:04.729Z,40.63
2019-02-19T09:00:34.553Z,47.60
2019-02-19T09:03:05.073Z,45.98
2019-02-19T09:05:34.835Z,53.80
2019-02-19T09:08:04.943Z,49.23
2019-02-19T09:10:33.485Z,50.73
2019-02-19T09:13:02.282Z,46.00
2019-02-19T09:15:30.894Z,41.98
2019-02-19T09:17:59.375Z,45.17
2019-02-19T09:20:27.919Z,46.37
2019-02-19T09:22:56.374Z,47.43
2019-02-19T09:25:24.847Z,38.17
2019-02-19T09:27:54.829Z,41.68
2019-02-19T09:30:24.823Z,39.63
2019-02-19T09:32:53.303Z,42.20
2019-02-19T09:35:23.128Z,33.88
2019-02-19T09:37:52.235Z,38.92
2019-02-19T09:40:20.971Z,43.17
2019-02-19T09:42:49.410Z,39.95
2019-02-19T09:45:17.879Z,40.10
2019-02-19T09:47:46.365Z,36.35
2019-02-19T09:50:14.920Z,29.80
2019-02-19T09:52:44.563Z,32.33
2019-02-19T09:55:13.104Z,32.23
2019-02-19T09:57:43.298Z,32.90
2019-02-19T10:00:15.044Z,43.35
2019-02-19T10:02:44.043Z,34.27
2019-02-19T10:05:12.816Z,35.60
2019-02-19T10:07:41.346Z,33.30
2019-02-19T10:10:21.476Z,30.37
2019-02-19T10:12:49.917Z,29.20
2019-02-19T10:15:19.281Z,34.67
2019-02-19T10:17:48.778Z,35.10
2019-02-19T10:20:18.338Z,25.40
2019-02-19T10:22:47.359Z,23.67
2019-02-19T10:25:15.818Z,30.50
2019-02-19T10:27:46.683Z,24.07
2019-02-19T10:30:21.282Z,31.70
2019-02-19T10:32:52.275Z,23.42
2019-02-19T10:35:20.720Z,31.00
2019-02-19T10:37:51.826Z,24.12
2019-02-19T10:40:22.804Z,26.47
2019-02-19T10:42:51.307Z,21.40
2019-02-19T10:45:24.868Z,26.48
2019-02-19T10:47:53.383Z,20.00
2019-02-19T10:50:24.832Z,22.20
2019-02-19T10:52:54.118Z,24.98
2019-02-19T10:55:22.673Z,22.87
2019-02-19T10:57:54.942Z,24.07
2019-02-19T11:00:24.691Z,24.90
2019-02-19T11:02:54.163Z,18.07
2019-02-19T11:05:22.621Z,20.02
2019-02-19T11:07:52.134Z,24.65
2019-02-19T11:10:20.669Z,24.00
2019-02-19T11:12:51.407Z,24.72
2019-02-19T11:15:19.869Z,24.32
2019-02-19T11:17:48.484Z,20.75
2019-02-19T11:20:21.695Z,18.87
2019-02-19T11:22:51.382Z,21.77
2019-02-19T11:25:20.704Z,23.75
2019-02-19T11:27:49.424Z,23.42
2019-02-19T11:30:20.558Z,21.15
2019-02-19T11:32:50.462Z,15.28
2019-02-19T11:35:21.589Z,22.07
2019-02-19T11:38:10.989Z,19.92
2019-02-19T11:40:39.511Z,21.40
2019-02-19T11:43:08.915Z,14.45
2019-02-19T11:45:37.474Z,19.92
2019-02-19T11:48:06.259Z,24.15
2019-02-19T11:50:34.862Z,18.67
2019-02-19T11:53:03.480Z,17.98
2019-02-19T11:55:32.033Z,24.75
2019-02-19T11:58:00.674Z,11.63
2019-02-19T12:00:36.779Z,17.17
2019-02-19T12:03:05.375Z,19.95
2019-02-19T12:05:34.023Z,23.35
2019-02-19T12:08:09.301Z,21.57
2019-02-19T12:10:37.904Z,17.90
2019-02-19T12:13:06.424Z,20.65
2019-02-19T12:15:35.608Z,19.30
2019-02-19T12:18:04.690Z,16.48
2019-02-19T12:20:34.620Z,19.45
2019-02-19T12:23:03.162Z,16.90
2019-02-19T12:25:31.657Z,16.00
2019-02-19T12:28:00.205Z,16.20
2019-02-19T12:30:28.719Z,18.30
2019-02-19T12:32:57.268Z,18.23
2019-02-19T12:35:25.862Z,16.07
2019-02-19T12:37:54.471Z,15.75
2019-02-19T12:40:22.938Z,14.25
2019-02-19T12:42:52.933Z,21.20
2019-02-19T12:45:24.116Z,14.00
2019-02-19T12:47:52.642Z,17.85
2019-02-19T12:50:21.096Z,15.38
2019-02-19T12:52:49.607Z,17.60
2019-02-19T12:55:18.062Z,14.33
2019-02-19T12:57:46.591Z,14.80
2019-02-19T13:00:20.017Z,16.90
2019-02-19T13:02:48.473Z,17.10
2019-02-19T13:05:17.165Z,16.80
2019-02-19T13:07:47.091Z,22.37
2019-02-19T13:10:18.692Z,21.13
2019-02-19T13:12:49.182Z,15.78
2019-02-19T13:15:21.651Z,11.12
2019-02-19T13:17:50.171Z,16.48
2019-02-19T13:20:18.692Z,12.20
2019-02-19T13:22:47.186Z,14.87
2019-02-19T13:25:15.703Z,20.35
2019-02-19T13:27:46.642Z,20.08
2019-02-19T13:30:18.224Z,15.90
2019-02-19T13:32:46.690Z,14.87
2019-02-19T13:35:17.282Z,16.05
2019-02-19T13:37:45.821Z,15.93
2019-02-19T13:40:16.845Z,18.37
2019-02-19T13:42:45.401Z,11.93
2019-02-19T13:45:16.762Z,20.03
2019-02-19T13:47:45.279Z,11.20
2019-02-19T13:50:20.875Z,14.55
2019-02-19T13:53:08.179Z,12.07
2019-02-19T13:55:38.278Z,12.45
2019-02-19T13:58:07.409Z,11.35
2019-02-19T14:00:38.889Z,12.30
2019-02-19T14:03:11.621Z,12.60
2019-02-19T14:05:40.387Z,13.63
2019-02-19T14:08:14.589Z,15.68
2019-02-19T14:10:39.612Z,12.40
2019-02-19T14:13:08.925Z,16.70
2019-02-19T14:15:54.015Z,16.10
2019-02-19T14:18:25.116Z,14.23
2019-02-19T14:20:56.213Z,16.30
2019-02-19T14:23:35.486Z,11.68
2019-02-19T14:26:22.240Z,15.50
2019-02-19T14:28:56.792Z,10.18
2019-02-19T14:31:32.942Z,15.95
2019-02-19T14:34:20.856Z,13.62
2019-02-19T14:36:50.967Z,15.15
2019-02-19T14:39:24.228Z,14.73
2019-02-19T14:41:58.729Z,7.97
2019-02-19T14:44:43.278Z,19.23
2019-02-19T14:47:18.761Z,18.12
2019-02-19T14:49:55.256Z,16.02
2019-02-19T14:52:45.961Z,14.85
2019-02-19T14:55:22.128Z,12.78
2019-02-19T14:58:08.754Z,18.27
2019-02-19T15:00:41.877Z,15.05
2019-02-19T15:03:34.786Z,23.10
2019-02-19T15:06:24.583Z,13.40
2019-02-19T15:08:59.189Z,13.83
2019-02-19T15:11:36.023Z,13.62
2019-02-19T15:14:06.687Z,17.56
2019-02-19T15:16:36.873Z,12.45
2019-02-19T15:19:19.714Z,16.32
2019-02-19T15:21:50.935Z,21.25
2019-02-19T15:24:39.603Z,17.25
2019-02-19T15:27:13.758Z,18.50
2019-02-19T15:29:50.828Z,11.12
2019-02-19T15:32:37.357Z,21.25
2019-02-19T15:35:10.803Z,19.70
2019-02-19T15:37:53.116Z,15.32
2019-02-19T15:40:39.241Z,12.82
2019-02-19T15:43:25.373Z,16.20
2019-02-19T15:45:58.157Z,15.60
2019-02-19T15:48:37.171Z,10.13
2019-02-19T15:51:23.876Z,10.80
2019-02-19T15:53:53.978Z,12.50
2019-02-19T15:56:36.283Z,12.88
2019-02-19T15:59:21.178Z,10.58
2019-02-19T16:01:53.735Z,10.03
2019-02-19T16:04:23.905Z,7.87
2019-02-19T16:06:55.524Z,10.53
2019-02-19T16:09:37.379Z,6.10
2019-02-19T16:12:22.692Z,8.50
2019-02-19T16:14:55.539Z,14.78
2019-02-19T16:17:29.930Z,10.80
2019-02-19T16:20:00.284Z,16.42
2019-02-19T16:22:36.152Z,10.28
2019-02-19T16:25:26.501Z,9.08
2019-02-19T16:28:14.680Z,10.18
2019-02-19T16:30:44.872Z,13.45
2019-02-19T16:33:18.560Z,10.70
2019-02-19T16:36:13.035Z,13.62
2019-02-19T16:41:21.470Z,10.13
2019-02-19T16:44:00.602Z,11.08
2019-02-19T16:46:37.413Z,15.03
2019-02-19T16:49:10.664Z,15.95
2019-02-19T16:51:41.022Z,15.32
2019-02-19T16:54:16.609Z,11.70
2019-02-19T16:56:46.714Z,18.40
2019-02-19T16:59:32.031Z,16.32
2019-02-19T17:02:11.076Z,19.62
2019-02-19T17:04:43.707Z,15.72
2019-02-19T17:07:15.055Z,19.85
2019-02-19T17:09:51.155Z,14.47
2019-02-19T17:12:37.163Z,18.73
2019-02-19T17:15:23.193Z,13.13
2019-02-19T17:17:57.311Z,15.15
2019-02-19T17:20:45.449Z,19.35
2019-02-19T17:23:18.384Z,22.32
2019-02-19T17:25:52.314Z,32.75
2019-02-19T17:28:26.945Z,20.97
2019-02-19T17:31:02.005Z,27.65
2019-02-19T17:33:32.209Z,25.08
2019-02-19T17:36:18.872Z,21.20
2019-02-19T17:38:54.282Z,22.22
2019-02-19T17:41:41.237Z,27.80
2019-02-19T17:44:14.665Z,20.12
2019-02-19T17:47:05.065Z,21.50
2019-02-19T17:49:35.743Z,24.70
2019-02-19T17:52:18.378Z,22.48
2019-02-19T17:54:54.259Z,22.87
2019-02-19T17:57:30.180Z,31.80
2019-02-19T18:00:02.988Z,30.30
2019-02-19T18:02:34.723Z,21.75
2019-02-19T18:05:07.121Z,25.97
2019-02-19T18:07:43.556Z,25.72
2019-02-19T18:10:37.045Z,25.25
2019-02-19T18:13:09.660Z,19.77
2019-02-19T18:15:45.544Z,24.20
2019-02-19T18:18:33.773Z,27.90
2019-02-19T18:21:03.620Z,22.40
2019-02-19T18:23:33.580Z,28.27
2019-02-19T18:26:02.595Z,19.98
2019-02-19T18:28:37.633Z,26.25
2019-02-19T18:31:19.858Z,22.10
2019-02-19T18:33:50.027Z,28.57
2019-02-19T18:36:18.612Z,21.62
2019-02-19T18:38:47.156Z,24.12
2019-02-19T18:41:18.100Z,23.02
2019-02-19T18:43:46.612Z,33.85
2019-02-19T18:46:15.067Z,32.90
2019-02-19T18:48:43.708Z,31.00
2019-02-19T18:51:13.292Z,26.40
2019-02-19T18:53:41.742Z,33.98
2019-02-19T18:56:10.207Z,26.90
2019-02-19T18:58:38.827Z,28.80
2019-02-19T19:01:08.639Z,27.25
2019-02-19T19:03:37.542Z,26.85
2019-02-19T19:06:07.618Z,30.37
2019-02-19T19:08:37.028Z,24.43
2019-02-19T19:11:05.528Z,30.70
2019-02-19T19:13:34.059Z,21.10
2019-02-19T19:16:02.716Z,22.60
2019-02-19T19:18:32.081Z,23.07
2019-02-19T19:21:07.734Z,24.40
2019-02-19T19:23:31.544Z,18.50
2019-02-19T19:26:00.032Z,24.82
2019-02-19T19:28:28.589Z,28.92
2019-02-19T19:30:57.047Z,18.77
2019-02-19T19:33:25.498Z,24.07
2019-02-19T19:35:55.699Z,19.30
2019-02-19T19:38:24.310Z,25.10
2019-02-19T19:40:53.288Z,24.10
2019-02-19T19:43:21.773Z,26.42
2019-02-19T19:45:50.237Z,20.10
2019-02-19T19:48:20.580Z,23.47
2019-02-19T19:50:49.119Z,25.48
2019-02-19T19:53:17.676Z,26.00
2019-02-19T19:55:46.211Z,20.88
2019-02-19T19:58:19.865Z,28.02
2019-02-19T20:03:16.087Z,20.90
2019-02-19T20:05:44.587Z,26.40
2019-02-19T20:08:13.095Z,25.95
2019-02-19T20:10:41.602Z,32.42
2019-02-19T20:13:10.131Z,23.30
2019-02-19T20:15:38.647Z,26.77
2019-02-19T20:18:07.170Z,28.92
2019-02-19T20:20:35.716Z,26.20
2019-02-19T20:23:07.000Z,21.95
2019-02-19T20:25:35.240Z,24.32
2019-02-19T20:28:04.817Z,28.32
2019-02-19T20:30:35.029Z,23.35
2019-02-19T20:33:04.886Z,28.87
2019-02-19T20:35:33.434Z,35.38
2019-02-19T20:38:01.936Z,35.43
2019-02-19T20:40:30.460Z,28.27
2019-02-19T20:42:59.097Z,22.62
2019-02-19T20:45:27.625Z,26.97
2019-02-19T20:47:57.222Z,23.57
2019-02-19T20:50:26.027Z,27.87
2019-02-19T20:52:54.552Z,26.02
2019-02-19T20:55:23.123Z,21.47
2019-02-19T20:57:53.510Z,28.27
2019-02-19T21:00:22.033Z,19.35
2019-02-19T21:02:50.551Z,27.22
2019-02-19T21:05:19.113Z,29.20
2019-02-19T21:07:52.522Z,37.53
2019-02-19T21:10:21.415Z,23.22
2019-02-19T21:12:49.896Z,32.17
2019-02-19T21:15:18.440Z,29.07
2019-02-19T21:17:46.958Z,29.55
2019-02-19T21:20:16.986Z,28.33
2019-02-19T21:22:45.521Z,41.55
2019-02-19T21:25:14.051Z,26.97
2019-02-19T21:27:42.653Z,28.77
2019-02-19T21:30:17.293Z,31.33
2019-02-19T21:32:45.793Z,28.40
2019-02-19T21:35:14.331Z,32.80
2019-02-19T21:37:44.541Z,37.28
2019-02-19T21:40:14.775Z,32.55
2019-02-19T21:42:43.457Z,40.58
2019-02-19T21:45:13.717Z,27.45
2019-02-19T21:47:44.183Z,29.65
2019-02-19T21:50:15.524Z,27.27
2019-02-19T21:52:55.814Z,26.73
2019-02-19T21:55:24.283Z,38.53
2019-02-19T21:57:52.818Z,32.50
2019-02-19T22:00:22.635Z,37.98
2019-02-19T22:02:52.045Z,28.73
2019-02-19T22:05:20.591Z,27.80
2019-02-19T22:07:49.304Z,31.15
2019-02-19T22:10:17.834Z,28.80
2019-02-19T22:12:46.441Z,31.97
2019-02-19T22:15:15.568Z,34.48
2019-02-19T22:17:44.032Z,29.12
2019-02-19T22:20:22.880Z,33.73
2019-02-19T22:22:52.000Z,35.35
2019-02-19T22:25:20.496Z,25.15
2019-02-19T22:27:49.787Z,20.17
2019-02-19T22:30:21.244Z,22.80
2019-02-19T22:32:52.750Z,29.18
2019-02-19T22:35:23.445Z,25.75
2019-02-19T22:37:51.958Z,19.77
2019-02-19T22:40:20.442Z,24.25
2019-02-19T22:42:49.331Z,28.90
2019-02-19T22:45:17.860Z,40.28
2019-02-19T22:47:53.209Z,29.63
2019-02-19T22:50:18.142Z,23.30
2019-02-19T22:52:46.602Z,21.35
2019-02-19T22:55:19.458Z,25.17
2019-02-19T22:57:48.784Z,24.73
2019-02-19T23:00:44.133Z,22.10
2019-02-19T23:03:14.194Z,24.35
2019-02-19T23:05:43.878Z,28.83
2019-02-19T23:08:12.404Z,24.00
2019-02-19T23:10:40.948Z,26.05
2019-02-19T23:13:09.422Z,27.73
2019-02-19T23:15:40.842Z,20.60
2019-02-19T23:18:10.193Z,19.87
2019-02-19T23:20:59.537Z,22.55
2019-02-19T23:23:29.588Z,23.77
2019-02-19T23:25:58.714Z,25.77
2019-02-19T23:28:27.429Z,25.30
2019-02-19T23:30:57.448Z,21.67
2019-02-19T23:33:25.973Z,24.85
2019-02-19T23:36:02.076Z,26.35
2019-02-19T23:38:37.191Z,26.57
2019-02-19T23:41:07.247Z,24.32
2019-02-19T23:43:35.718Z,23.12
2019-02-19T23:46:05.104Z,24.90
2019-02-19T23:48:33.730Z,22.50
2019-02-19T23:51:02.205Z,28.45
2019-02-19T23:53:30.741Z,29.02
2019-02-19T23:55:59.197Z,35.70
2019-02-19T23:58:28.783Z,18.48
